Time;durP1;ratioP1;P1;durP2;ratioP2;P2;SDS_P1;SDS_P2;PMS_P1;PMS_P2;Temp;Humidity;BMP_temperature;BMP_pressure;BME280_temperature;BME280_humidity;BME280_pressure;Samples;Min_cycle;Max_cycle;Signal;HPM_P1;HPM_P2
2024/01/29 00:01:00;;;;;;;22.70;11.48;;;9.40;99.90;;;;;;5053645;28;20461;-61
2024/01/29 00:03:27;;;;;;;26.02;11.63;;;9.40;99.90;;;;;;5053283;28;20095;-61
2024/01/29 00:05:54;;;;;;;21.88;11.40;;;9.40;99.90;;;;;;5042668;28;20038;-62
2024/01/29 00:08:22;;;;;;;19.35;11.00;;;9.50;99.90;;;;;;5033217;28;20374;-62
2024/01/29 00:10:49;;;;;;;17.40;10.07;;;9.50;99.90;;;;;;5033589;28;20387;-62
2024/01/29 00:13:16;;;;;;;18.08;9.98;;;9.50;99.90;;;;;;5031936;28;20095;-62
2024/01/29 00:15:43;;;;;;;19.33;9.80;;;9.60;99.90;;;;;;5033422;28;20047;-62
2024/01/29 00:18:10;;;;;;;14.80;8.98;;;9.60;99.90;;;;;;5033179;28;20124;-62
2024/01/29 00:20:36;;;;;;;14.02;8.20;;;9.60;99.90;;;;;;5033490;28;20050;-62
2024/01/29 00:23:03;;;;;;;20.33;8.32;;;9.60;99.90;;;;;;5033164;28;20486;-62
2024/01/29 00:25:30;;;;;;;14.30;8.48;;;9.60;99.90;;;;;;5034717;28;20072;-63
2024/01/29 00:27:57;;;;;;;13.93;8.45;;;9.60;99.90;;;;;;5037313;28;20437;-63
2024/01/29 00:30:24;;;;;;;13.45;7.32;;;9.60;99.90;;;;;;5037379;28;20124;-62
2024/01/29 00:32:51;;;;;;;18.65;8.20;;;9.60;99.90;;;;;;5036868;28;20535;-63
2024/01/29 00:35:18;;;;;;;13.65;8.30;;;9.60;99.90;;;;;;5035674;28;20068;-62
2024/01/29 00:37:44;;;;;;;13.73;7.88;;;9.60;99.90;;;;;;5036938;28;20509;-62
2024/01/29 00:40:11;;;;;;;13.73;8.10;;;9.50;99.90;;;;;;5036956;28;20053;-63
2024/01/29 00:42:38;;;;;;;14.07;7.93;;;9.50;99.90;;;;;;5036588;28;20053;-62
2024/01/29 00:45:05;;;;;;;14.98;8.25;;;9.50;99.90;;;;;;5036668;28;20041;-62
2024/01/29 00:47:31;;;;;;;12.35;7.97;;;9.50;99.90;;;;;;5036994;28;20532;-63
2024/01/29 00:49:58;;;;;;;15.05;8.85;;;9.50;99.90;;;;;;5036962;28;20049;-62
2024/01/29 00:52:25;;;;;;;14.85;8.45;;;9.50;99.90;;;;;;5036524;28;20061;-62
2024/01/29 00:54:52;;;;;;;14.07;8.32;;;9.50;99.90;;;;;;5036288;28;20087;-62
2024/01/29 00:57:20;;;;;;;11.93;8.00;;;9.60;99.90;;;;;;5036452;28;20421;-62
2024/01/29 00:59:47;;;;;;;14.30;8.55;;;9.60;99.90;;;;;;5036559;28;20129;-63
2024/01/29 01:02:13;;;;;;;12.65;8.43;;;9.50;99.90;;;;;;5036527;28;20048;-62
2024/01/29 01:04:40;;;;;;;15.93;8.38;;;9.50;99.90;;;;;;5036233;28;20116;-63
2024/01/29 01:07:07;;;;;;;13.63;8.52;;;9.50;99.90;;;;;;5036308;28;20042;-63
2024/01/29 01:09:34;;;;;;;14.02;8.95;;;9.50;99.90;;;;;;5036302;28;20050;-62
2024/01/29 01:12:01;;;;;;;12.30;8.80;;;9.50;99.90;;;;;;5036206;28;20052;-63
2024/01/29 01:14:28;;;;;;;11.50;8.63;;;9.50;99.90;;;;;;5035918;28;20140;-62
2024/01/29 01:16:54;;;;;;;15.05;8.68;;;9.50;99.90;;;;;;5036544;28;20433;-62
2024/01/29 01:19:21;;;;;;;12.68;9.18;;;9.50;99.90;;;;;;5035893;28;20069;-62
2024/01/29 01:21:48;;;;;;;13.98;8.90;;;9.50;99.90;;;;;;5036263;28;20087;-62
2024/01/29 01:24:15;;;;;;;17.08;9.75;;;9.50;99.90;;;;;;5035918;28;20043;-63
2024/01/29 01:26:42;;;;;;;14.60;9.52;;;9.50;99.90;;;;;;5035772;28;20057;-62
2024/01/29 01:29:09;;;;;;;17.55;9.45;;;9.60;99.90;;;;;;5035950;28;20128;-63
2024/01/29 01:31:35;;;;;;;16.63;9.18;;;9.60;99.90;;;;;;5035972;28;20041;-63
2024/01/29 01:34:02;;;;;;;14.50;9.30;;;9.60;99.90;;;;;;5035531;28;20409;-63
2024/01/29 01:36:30;;;;;;;15.45;9.98;;;9.60;99.90;;;;;;5035520;28;20048;-63
2024/01/29 01:38:56;;;;;;;15.30;9.73;;;9.60;99.90;;;;;;5035610;28;20384;-62
2024/01/29 01:41:23;;;;;;;13.55;9.63;;;9.60;99.90;;;;;;5035141;28;20041;-62
2024/01/29 01:43:50;;;;;;;17.02;9.68;;;9.70;99.90;;;;;;5023788;28;20691;-62
2024/01/29 01:46:17;;;;;;;14.52;9.50;;;9.70;99.90;;;;;;5022228;28;20101;-62
2024/01/29 01:48:44;;;;;;;14.63;9.73;;;9.70;99.90;;;;;;5021404;28;20038;-62
2024/01/29 01:51:11;;;;;;;13.70;9.55;;;9.80;99.90;;;;;;5029457;28;20434;-61
2024/01/29 01:53:38;;;;;;;19.40;10.07;;;9.80;99.90;;;;;;5035240;28;20042;-62
2024/01/29 01:56:06;;;;;;;16.40;9.85;;;9.80;99.90;;;;;;5034080;28;20096;-62
2024/01/29 01:58:32;;;;;;;13.40;9.13;;;9.80;99.90;;;;;;5028260;28;20475;-62
2024/01/29 02:00:59;;;;;;;15.77;10.15;;;9.80;99.90;;;;;;5026079;28;20042;-62
2024/01/29 02:03:26;;;;;;;15.48;10.40;;;9.80;99.90;;;;;;5015459;28;20045;-62
2024/01/29 02:05:53;;;;;;;19.05;10.75;;;9.90;99.90;;;;;;5015139;28;20542;-62
2024/01/29 02:08:20;;;;;;;18.15;10.43;;;9.90;99.90;;;;;;5015353;28;20053;-62
2024/01/29 02:10:47;;;;;;;15.25;10.23;;;10.00;99.90;;;;;;5015745;28;20041;-62
2024/01/29 02:13:13;;;;;;;19.67;10.85;;;10.00;99.90;;;;;;5015063;28;20099;-62
2024/01/29 02:15:40;;;;;;;16.35;9.82;;;10.00;99.90;;;;;;5014932;28;20112;-62
2024/01/29 02:18:07;;;;;;;18.98;10.48;;;10.00;99.90;;;;;;5015452;28;20073;-62
2024/01/29 02:20:34;;;;;;;16.27;11.35;;;10.00;99.90;;;;;;5015394;28;20538;-62
2024/01/29 02:23:00;;;;;;;18.27;10.98;;;10.10;99.90;;;;;;5015112;28;20069;-62
2024/01/29 02:25:27;;;;;;;19.70;11.23;;;10.10;99.90;;;;;;5015137;28;20033;-62
2024/01/29 02:27:54;;;;;;;20.02;11.05;;;10.10;99.90;;;;;;5014824;28;20046;-62
2024/01/29 02:30:21;;;;;;;20.05;11.15;;;10.10;99.90;;;;;;5015086;28;20084;-61
2024/01/29 02:32:48;;;;;;;18.55;11.07;;;10.10;99.90;;;;;;5014539;28;20510;-63
2024/01/29 02:35:15;;;;;;;16.75;11.27;;;10.10;99.90;;;;;;5015049;28;20061;-62
2024/01/29 02:37:42;;;;;;;18.20;10.98;;;10.00;99.90;;;;;;5014647;28;20045;-62
2024/01/29 02:40:08;;;;;;;18.40;11.25;;;10.00;99.90;;;;;;5013407;28;20109;-62
2024/01/29 02:42:35;;;;;;;18.77;11.57;;;10.10;99.90;;;;;;5014554;28;20491;-62
2024/01/29 02:45:03;;;;;;;18.83;11.77;;;10.10;99.90;;;;;;5014695;28;20048;-62
2024/01/29 02:47:30;;;;;;;18.42;11.85;;;10.10;99.90;;;;;;5014319;28;20041;-61
2024/01/29 02:49:57;;;;;;;18.90;11.35;;;10.10;99.90;;;;;;5014567;28;20045;-63
2024/01/29 02:52:24;;;;;;;22.38;12.63;;;10.10;99.90;;;;;;5014439;28;20048;-62
2024/01/29 02:54:50;;;;;;;22.02;12.35;;;10.10;99.90;;;;;;5014664;28;20147;-62
2024/01/29 02:57:23;;;;;;;21.77;13.18;;;10.10;99.90;;;;;;5013674;28;20048;-62
2024/01/29 02:59:50;;;;;;;19.85;11.60;;;10.10;99.90;;;;;;5014283;28;20041;-62
2024/01/29 03:02:17;;;;;;;23.30;13.00;;;10.10;99.90;;;;;;5014436;28;20050;-62
2024/01/29 03:04:44;;;;;;;19.25;12.38;;;10.10;99.90;;;;;;5014266;28;20128;-62
2024/01/29 03:07:11;;;;;;;24.10;13.40;;;10.10;99.90;;;;;;5014072;28;20042;-63
2024/01/29 03:09:38;;;;;;;22.02;13.10;;;10.00;99.90;;;;;;5014375;28;20052;-63
2024/01/29 03:12:05;;;;;;;25.63;14.35;;;10.00;99.90;;;;;;5014729;28;20042;-63
2024/01/29 03:14:31;;;;;;;20.85;14.60;;;10.00;99.90;;;;;;5013760;28;20054;-62
2024/01/29 03:16:58;;;;;;;29.23;14.30;;;9.90;99.90;;;;;;5013921;28;20100;-63
2024/01/29 03:19:25;;;;;;;27.50;13.88;;;9.90;99.90;;;;;;5013903;28;20073;-63
2024/01/29 03:21:52;;;;;;;28.52;14.43;;;9.90;99.90;;;;;;5013910;28;20065;-62
2024/01/29 03:24:19;;;;;;;24.08;13.75;;;9.90;99.90;;;;;;5013691;28;20462;-62
2024/01/29 03:26:46;;;;;;;24.52;13.85;;;9.90;99.90;;;;;;5014336;28;20124;-62
2024/01/29 03:29:12;;;;;;;29.45;15.55;;;9.80;99.90;;;;;;5014310;28;20041;-62
2024/01/29 03:31:39;;;;;;;27.98;15.63;;;9.80;99.90;;;;;;5013867;28;20483;-63
2024/01/29 03:34:06;;;;;;;29.10;15.52;;;9.80;99.90;;;;;;5013648;28;20104;-62
2024/01/29 03:36:33;;;;;;;28.98;14.65;;;9.80;99.90;;;;;;5014227;28;20099;-63
2024/01/29 03:39:00;;;;;;;31.05;15.00;;;9.80;99.90;;;;;;5013845;28;20042;-62
2024/01/29 03:41:26;;;;;;;29.98;15.15;;;9.70;99.90;;;;;;5013653;28;20045;-62
2024/01/29 03:43:53;;;;;;;26.83;15.30;;;9.80;99.90;;;;;;5013990;28;20056;-62
2024/01/29 03:46:20;;;;;;;30.58;15.48;;;9.80;99.90;;;;;;5013965;28;20050;-63
2024/01/29 03:48:47;;;;;;;31.23;14.73;;;9.80;99.90;;;;;;5013486;28;20046;-62
2024/01/29 03:51:14;;;;;;;28.80;14.43;;;9.80;99.90;;;;;;5013904;28;20471;-62
2024/01/29 03:53:40;;;;;;;29.17;15.38;;;9.80;99.90;;;;;;5013542;28;20042;-62
2024/01/29 03:56:07;;;;;;;29.20;15.07;;;9.80;99.90;;;;;;5013822;28;20050;-62
2024/01/29 03:58:34;;;;;;;29.02;15.60;;;9.90;99.90;;;;;;5014157;28;20049;-63
2024/01/29 04:01:01;;;;;;;25.55;15.05;;;9.90;99.90;;;;;;5012855;28;20451;-63
2024/01/29 04:03:28;;;;;;;29.42;15.90;;;9.90;99.90;;;;;;5013465;28;20505;-62
2024/01/29 04:05:54;;;;;;;27.30;15.77;;;9.90;99.90;;;;;;5013254;28;20042;-62
2024/01/29 04:08:22;;;;;;;29.08;16.52;;;9.90;99.90;;;;;;5013712;28;20117;-62
2024/01/29 04:10:49;;;;;;;28.45;15.57;;;9.90;99.90;;;;;;5013644;28;20042;-62
2024/01/29 04:13:16;;;;;;;30.75;16.52;;;10.00;99.90;;;;;;5013001;28;20111;-63
2024/01/29 04:15:43;;;;;;;26.05;15.88;;;10.00;99.90;;;;;;5013347;28;20038;-62
2024/01/29 04:18:10;;;;;;;32.65;16.27;;;10.00;99.90;;;;;;5013116;28;20543;-63
2024/01/29 04:20:36;;;;;;;29.15;16.13;;;10.00;99.90;;;;;;5013443;28;20049;-62
2024/01/29 04:23:03;;;;;;;31.92;16.48;;;10.00;99.90;;;;;;5013345;28;20132;-62
2024/01/29 04:25:30;;;;;;;27.75;16.70;;;10.00;99.90;;;;;;5013548;28;20046;-62
2024/01/29 04:27:57;;;;;;;25.90;15.98;;;10.00;99.90;;;;;;5013660;28;20044;-62
2024/01/29 04:30:24;;;;;;;29.80;16.27;;;10.00;99.90;;;;;;5013306;28;20073;-62
2024/01/29 04:32:51;;;;;;;34.70;17.58;;;10.00;99.90;;;;;;5013500;28;20494;-63
2024/01/29 04:35:17;;;;;;;29.08;16.58;;;10.00;99.90;;;;;;5013475;28;20379;-62
2024/01/29 04:37:44;;;;;;;29.73;16.67;;;10.00;99.90;;;;;;5013136;28;20133;-62
2024/01/29 04:40:11;;;;;;;32.22;16.75;;;10.00;99.90;;;;;;5013378;28;20088;-64
2024/01/29 04:42:38;;;;;;;34.88;16.77;;;10.00;99.90;;;;;;5013108;28;20399;-63
2024/01/29 04:45:05;;;;;;;28.33;16.30;;;10.10;99.90;;;;;;5013204;28;20096;-62
2024/01/29 04:47:32;;;;;;;30.85;16.23;;;10.10;99.90;;;;;;5013445;28;20041;-62
2024/01/29 04:49:59;;;;;;;31.35;17.50;;;10.10;99.90;;;;;;5013030;28;20104;-63
2024/01/29 04:52:26;;;;;;;28.13;16.60;;;10.10;99.90;;;;;;5013418;28;20131;-63
2024/01/29 04:54:52;;;;;;;30.20;17.35;;;10.10;99.90;;;;;;5012960;28;20046;-63
2024/01/29 04:57:20;;;;;;;30.15;17.02;;;10.10;99.90;;;;;;5012985;28;20144;-63
2024/01/29 04:59:47;;;;;;;30.70;16.98;;;10.10;99.90;;;;;;5012659;28;20037;-63
2024/01/29 05:02:14;;;;;;;31.90;17.42;;;10.10;99.90;;;;;;5012672;28;20050;-63
2024/01/29 05:04:41;;;;;;;32.47;17.48;;;10.10;99.90;;;;;;5012749;28;20041;-62
2024/01/29 05:07:08;;;;;;;38.42;18.77;;;10.10;99.90;;;;;;5013022;28;20041;-63
2024/01/29 05:09:34;;;;;;;33.03;18.83;;;10.10;99.90;;;;;;5013158;28;20052;-63
2024/01/29 05:12:01;;;;;;;34.45;17.27;;;10.10;99.90;;;;;;5015166;28;20528;-62
2024/01/29 05:14:28;;;;;;;34.90;18.42;;;10.20;99.90;;;;;;5016504;28;20057;-63
2024/01/29 05:16:55;;;;;;;30.63;18.02;;;10.20;99.90;;;;;;5016649;28;20126;-62
2024/01/29 05:19:22;;;;;;;27.90;17.25;;;10.20;99.90;;;;;;5016360;28;20042;-63
2024/01/29 05:21:49;;;;;;;28.70;16.83;;;10.20;99.90;;;;;;5016777;28;20060;-63
2024/01/29 05:24:16;;;;;;;30.73;16.92;;;10.20;99.90;;;;;;5016042;28;20038;-62
2024/01/29 05:26:43;;;;;;;28.88;17.48;;;10.20;99.90;;;;;;5016359;28;20038;-62
2024/01/29 05:29:10;;;;;;;28.38;17.50;;;10.20;99.90;;;;;;5016549;28;20416;-63
2024/01/29 05:31:36;;;;;;;30.02;18.38;;;10.20;99.90;;;;;;5016432;28;20050;-63
2024/01/29 05:34:03;;;;;;;27.73;17.30;;;10.20;99.90;;;;;;5015935;28;20128;-62
2024/01/29 05:36:30;;;;;;;31.33;17.88;;;10.20;99.90;;;;;;5016276;28;20057;-62
2024/01/29 05:38:57;;;;;;;33.17;19.08;;;10.20;99.90;;;;;;5015763;28;20466;-62
2024/01/29 05:41:24;;;;;;;28.13;18.33;;;10.20;99.90;;;;;;5015733;28;20052;-63
2024/01/29 05:43:50;;;;;;;30.38;18.13;;;10.20;99.90;;;;;;5015731;28;20438;-62
2024/01/29 05:46:17;;;;;;;32.15;19.77;;;10.20;99.90;;;;;;5015550;28;20407;-62
2024/01/29 05:48:44;;;;;;;36.08;19.15;;;10.20;99.90;;;;;;5015980;28;20115;-62
2024/01/29 05:51:11;;;;;;;37.63;18.70;;;10.20;99.90;;;;;;5016133;28;20037;-63
2024/01/29 05:53:38;;;;;;;35.17;19.65;;;10.20;99.90;;;;;;5015284;28;20041;-62
2024/01/29 05:56:05;;;;;;;30.92;18.63;;;10.20;99.90;;;;;;5015678;28;20049;-63
2024/01/29 05:58:34;;;;;;;34.05;19.80;;;10.20;99.90;;;;;;5015750;28;20034;-63
2024/01/29 06:01:01;;;;;;;31.13;19.77;;;10.20;99.90;;;;;;5015851;28;20088;-62
2024/01/29 06:03:28;;;;;;;40.20;20.95;;;10.20;99.90;;;;;;5015595;28;20494;-62
2024/01/29 06:05:55;;;;;;;36.33;19.77;;;10.20;99.90;;;;;;5015332;28;20069;-63
2024/01/29 06:08:22;;;;;;;34.80;20.88;;;10.20;99.90;;;;;;5015121;28;20049;-63
2024/01/29 06:10:48;;;;;;;36.67;20.70;;;10.20;99.90;;;;;;5015379;28;20045;-63
2024/01/29 06:13:18;;;;;;;37.47;20.58;;;10.20;99.90;;;;;;5015428;28;20142;-62
2024/01/29 06:15:45;;;;;;;37.95;20.45;;;10.20;99.90;;;;;;5015658;28;20137;-62
2024/01/29 06:18:12;;;;;;;34.45;20.15;;;10.20;99.90;;;;;;5015276;28;20378;-62
2024/01/29 06:20:39;;;;;;;37.22;21.67;;;10.20;99.90;;;;;;5015313;28;20403;-62
2024/01/29 06:23:06;;;;;;;31.50;20.88;;;10.20;99.90;;;;;;5014259;28;20479;-62
2024/01/29 06:25:33;;;;;;;31.40;19.88;;;10.20;99.90;;;;;;5015283;28;20096;-62
2024/01/29 06:27:59;;;;;;;36.40;19.67;;;10.20;99.90;;;;;;5015314;28;20038;-63
2024/01/29 06:30:26;;;;;;;31.33;19.17;;;10.20;99.90;;;;;;5015409;28;20053;-62
2024/01/29 06:32:53;;;;;;;32.33;19.92;;;10.20;99.90;;;;;;5014974;28;20092;-62
2024/01/29 06:35:22;;;;;;;31.98;20.95;;;10.20;99.90;;;;;;5015276;28;20479;-62
2024/01/29 06:37:49;;;;;;;32.97;20.50;;;10.10;99.90;;;;;;5015065;28;20117;-63
2024/01/29 06:40:16;;;;;;;36.15;20.85;;;10.20;99.90;;;;;;5015004;28;20042;-63
2024/01/29 06:42:42;;;;;;;33.40;20.13;;;10.20;99.90;;;;;;5015072;28;20471;-63
2024/01/29 06:45:09;;;;;;;33.63;21.35;;;10.20;99.90;;;;;;5014816;28;20104;-62
2024/01/29 06:47:36;;;;;;;31.67;20.65;;;10.20;99.90;;;;;;5014839;28;20050;-62
2024/01/29 06:50:03;;;;;;;33.70;20.15;;;10.20;99.90;;;;;;5014954;28;20052;-62
2024/01/29 06:52:30;;;;;;;32.92;20.20;;;10.20;99.90;;;;;;5014708;28;20046;-62
2024/01/29 06:54:57;;;;;;;36.15;19.98;;;10.20;99.90;;;;;;5014786;28;20042;-62
2024/01/29 06:57:24;;;;;;;29.98;19.13;;;10.20;99.90;;;;;;5013646;28;20042;-62
2024/01/29 06:59:51;;;;;;;33.30;20.42;;;10.20;99.90;;;;;;5014610;28;20053;-62
2024/01/29 07:02:18;;;;;;;30.58;20.08;;;10.10;99.90;;;;;;5014872;28;20434;-62
2024/01/29 07:04:44;;;;;;;34.88;21.05;;;10.10;99.90;;;;;;5013205;28;20042;-62
2024/01/29 07:07:11;;;;;;;30.25;19.73;;;10.10;99.90;;;;;;5014172;28;20034;-62
2024/01/29 07:09:38;;;;;;;32.70;20.50;;;10.10;99.90;;;;;;5014210;28;20518;-61
2024/01/29 07:12:05;;;;;;;32.38;20.02;;;10.10;99.90;;;;;;5014888;28;20108;-62
2024/01/29 07:14:32;;;;;;;32.15;20.63;;;10.10;99.90;;;;;;5013989;28;20053;-62
2024/01/29 07:16:59;;;;;;;31.67;20.60;;;10.10;99.90;;;;;;5012731;28;20056;-61
2024/01/29 07:19:27;;;;;;;33.33;22.08;;;10.00;99.90;;;;;;5014157;28;20052;-62
2024/01/29 07:21:55;;;;;;;36.00;21.83;;;10.00;99.90;;;;;;5013757;28;20504;-62
2024/01/29 07:24:22;;;;;;;31.58;20.45;;;10.00;99.90;;;;;;5014035;28;20038;-62
2024/01/29 07:26:49;;;;;;;35.03;21.52;;;10.00;99.90;;;;;;5014070;28;20048;-62
2024/01/29 07:29:15;;;;;;;32.17;21.67;;;10.00;99.90;;;;;;5013954;28;20443;-62
2024/01/29 07:31:42;;;;;;;35.20;21.83;;;10.00;99.90;;;;;;5013852;28;20100;-62
2024/01/29 07:34:09;;;;;;;38.17;23.35;;;10.00;99.90;;;;;;5012713;28;20045;-62
2024/01/29 07:36:36;;;;;;;36.22;22.75;;;10.00;99.90;;;;;;5014037;28;20065;-62
2024/01/29 07:39:03;;;;;;;35.65;22.48;;;10.00;99.90;;;;;;5013702;28;20093;-62
2024/01/29 07:41:30;;;;;;;39.65;22.63;;;10.00;99.90;;;;;;5014042;28;20038;-62
2024/01/29 07:43:56;;;;;;;34.53;22.77;;;10.00;99.90;;;;;;5013449;28;20108;-62
2024/01/29 07:46:23;;;;;;;32.90;21.85;;;10.00;99.90;;;;;;5012753;28;20077;-62
2024/01/29 07:48:50;;;;;;;32.15;21.75;;;10.00;99.90;;;;;;5013563;28;20050;-62
2024/01/29 07:51:17;;;;;;;39.28;22.75;;;10.00;99.90;;;;;;5012360;28;20053;-62
2024/01/29 07:53:44;;;;;;;34.05;21.00;;;10.00;99.90;;;;;;5013381;28;20073;-62
2024/01/29 07:56:11;;;;;;;31.75;21.27;;;10.00;99.90;;;;;;5014157;28;20100;-62
2024/01/29 07:58:38;;;;;;;33.20;21.52;;;10.00;99.90;;;;;;5013537;28;20046;-62
2024/01/29 08:01:05;;;;;;;37.70;21.23;;;10.00;99.90;;;;;;5013713;28;20038;-64
2024/01/29 08:03:32;;;;;;;30.23;21.08;;;10.00;99.90;;;;;;5012597;28;20495;-62
2024/01/29 08:05:59;;;;;;;33.88;20.65;;;10.00;99.90;;;;;;5013567;28;20041;-62
2024/01/29 08:08:26;;;;;;;28.63;19.55;;;10.00;99.90;;;;;;5013894;28;20041;-62
2024/01/29 08:10:53;;;;;;;28.90;18.85;;;10.10;99.90;;;;;;5013461;28;20111;-61
2024/01/29 08:13:20;;;;;;;28.42;18.42;;;10.10;99.90;;;;;;5013118;28;20112;-62
2024/01/29 08:15:46;;;;;;;28.13;19.20;;;10.10;99.90;;;;;;5013802;28;20042;-62
2024/01/29 08:18:13;;;;;;;27.73;19.52;;;10.10;99.90;;;;;;5013436;28;20046;-61
2024/01/29 08:20:40;;;;;;;28.80;18.77;;;10.20;99.90;;;;;;5013546;28;20430;-62
2024/01/29 08:23:08;;;;;;;29.95;18.13;;;10.20;99.90;;;;;;5013704;28;20034;-62
2024/01/29 08:25:34;;;;;;;24.40;17.73;;;10.10;99.90;;;;;;5012330;28;20483;-62
2024/01/29 08:28:01;;;;;;;24.85;16.65;;;10.20;99.90;;;;;;5011961;28;20379;-62
2024/01/29 08:30:28;;;;;;;30.77;18.38;;;10.20;99.90;;;;;;5013485;28;20054;-62
2024/01/29 08:32:55;;;;;;;30.50;16.83;;;10.20;99.90;;;;;;5013603;28;20041;-62
2024/01/29 08:35:22;;;;;;;25.42;17.13;;;10.20;99.90;;;;;;5012351;28;20045;-62
2024/01/29 08:37:49;;;;;;;29.25;17.10;;;10.30;99.90;;;;;;5013457;28;20121;-62
2024/01/29 08:40:16;;;;;;;28.45;17.30;;;10.30;99.90;;;;;;5013553;28;20471;-62
2024/01/29 08:42:43;;;;;;;26.63;17.13;;;10.30;99.90;;;;;;5013130;28;20468;-62
2024/01/29 08:45:10;;;;;;;26.10;17.40;;;10.30;99.90;;;;;;5012914;28;20120;-64
2024/01/29 08:47:37;;;;;;;29.25;17.75;;;10.40;99.90;;;;;;5016839;28;20117;-64
2024/01/29 08:50:03;;;;;;;30.65;17.85;;;10.40;99.90;;;;;;5016086;28;20571;-63
2024/01/29 08:52:30;;;;;;;25.05;16.63;;;10.40;99.90;;;;;;5016640;28;20073;-64
2024/01/29 08:54:57;;;;;;;26.05;17.15;;;10.50;99.90;;;;;;5016716;28;20054;-64
2024/01/29 08:57:24;;;;;;;25.00;16.13;;;10.50;99.90;;;;;;5016985;28;20042;-64
2024/01/29 08:59:51;;;;;;;24.65;15.80;;;10.60;99.90;;;;;;5016859;28;20038;-62
2024/01/29 09:02:17;;;;;;;25.63;16.65;;;10.60;99.90;;;;;;5017006;28;20463;-64
2024/01/29 09:04:44;;;;;;;27.30;16.98;;;10.50;99.90;;;;;;5016542;28;20046;-64
2024/01/29 09:07:11;;;;;;;25.80;15.43;;;10.50;99.90;;;;;;5017121;28;20475;-63
2024/01/29 09:09:38;;;;;;;24.17;15.13;;;10.50;99.90;;;;;;5016708;28;20042;-63
2024/01/29 09:12:05;;;;;;;25.77;16.13;;;10.50;99.90;;;;;;5016839;28;20113;-63
2024/01/29 09:14:32;;;;;;;24.23;15.52;;;10.50;99.90;;;;;;5016134;28;20411;-62
2024/01/29 09:16:59;;;;;;;21.17;13.93;;;10.60;99.90;;;;;;5016978;28;20038;-63
2024/01/29 09:19:25;;;;;;;22.60;13.82;;;10.60;99.90;;;;;;5016385;28;20117;-63
2024/01/29 09:21:53;;;;;;;22.75;14.43;;;10.50;99.90;;;;;;5016148;28;20120;-63
2024/01/29 09:24:20;;;;;;;23.67;14.20;;;10.50;99.90;;;;;;5014921;28;20042;-62
2024/01/29 09:26:46;;;;;;;24.58;15.63;;;10.60;99.90;;;;;;5016214;28;20042;-63
2024/01/29 09:29:13;;;;;;;22.10;14.25;;;10.60;99.90;;;;;;5016499;28;20042;-62
2024/01/29 09:31:40;;;;;;;21.92;14.63;;;10.60;99.90;;;;;;5016226;28;20395;-64
2024/01/29 09:34:07;;;;;;;24.10;15.55;;;10.70;99.90;;;;;;5016344;28;20463;-63
2024/01/29 09:36:35;;;;;;;22.88;12.77;;;10.70;99.90;;;;;;5014719;28;20046;-63
2024/01/29 09:39:02;;;;;;;19.48;12.82;;;10.70;99.90;;;;;;5016239;28;20096;-64
2024/01/29 09:41:29;;;;;;;19.42;13.23;;;10.70;99.90;;;;;;5015810;28;20142;-63
2024/01/29 09:43:56;;;;;;;19.98;12.93;;;10.70;99.90;;;;;;5016248;28;20408;-63
2024/01/29 09:46:23;;;;;;;21.48;13.02;;;10.80;99.90;;;;;;5016378;28;20038;-63
2024/01/29 09:48:50;;;;;;;21.23;13.60;;;10.80;99.90;;;;;;5016065;28;20088;-63
2024/01/29 09:51:17;;;;;;;21.65;13.05;;;10.90;99.90;;;;;;5015946;28;20064;-63
2024/01/29 09:53:44;;;;;;;19.20;12.93;;;10.90;99.90;;;;;;5015643;28;20434;-64
2024/01/29 09:56:11;;;;;;;17.17;11.93;;;11.00;99.90;;;;;;5015858;28;20053;-62
2024/01/29 09:58:38;;;;;;;17.25;12.23;;;11.00;99.90;;;;;;5016059;28;20045;-62
2024/01/29 10:01:05;;;;;;;17.63;12.07;;;11.00;99.90;;;;;;5015722;28;20053;-62
2024/01/29 10:03:32;;;;;;;17.90;12.38;;;11.10;99.90;;;;;;5015202;28;20072;-63
2024/01/29 10:05:58;;;;;;;20.10;12.18;;;11.10;99.90;;;;;;5018224;28;20073;-62
2024/01/29 10:08:25;;;;;;;13.65;10.55;;;11.10;99.90;;;;;;5035064;28;20041;-62
2024/01/29 10:10:52;;;;;;;16.33;11.30;;;11.10;99.90;;;;;;5035506;28;20052;-62
2024/01/29 10:13:19;;;;;;;16.35;11.45;;;11.10;99.90;;;;;;5033001;28;20411;-63
2024/01/29 10:15:47;;;;;;;14.75;10.73;;;11.20;99.90;;;;;;5035577;28;20091;-62
2024/01/29 10:18:15;;;;;;;17.15;11.15;;;11.20;99.90;;;;;;5034118;28;20123;-62
2024/01/29 10:20:42;;;;;;;19.23;11.18;;;11.30;99.90;;;;;;5034985;28;20486;-62
2024/01/29 10:23:08;;;;;;;17.08;10.38;;;11.20;99.90;;;;;;5035133;28;20037;-62
2024/01/29 10:25:38;;;;;;;18.75;10.80;;;11.20;99.90;;;;;;5034272;28;20124;-63
2024/01/29 10:28:05;;;;;;;14.65;10.98;;;11.30;99.90;;;;;;5033821;28;20065;-63
2024/01/29 10:30:33;;;;;;;17.83;9.93;;;11.40;99.90;;;;;;5033915;28;20057;-63
2024/01/29 10:33:00;;;;;;;17.15;9.98;;;11.50;99.90;;;;;;5032752;28;20045;-63
2024/01/29 10:35:26;;;;;;;18.45;10.00;;;11.50;99.90;;;;;;5034651;28;20069;-62
2024/01/29 10:37:53;;;;;;;16.23;9.38;;;11.60;99.90;;;;;;5034997;28;20046;-64
2024/01/29 10:40:20;;;;;;;14.05;9.63;;;11.60;99.90;;;;;;5034371;28;20041;-64
2024/01/29 10:42:47;;;;;;;16.02;8.95;;;11.50;99.90;;;;;;5032942;28;20037;-64
2024/01/29 10:45:14;;;;;;;12.32;9.52;;;11.50;99.90;;;;;;5033690;28;20103;-64
2024/01/29 10:47:41;;;;;;;18.20;10.27;;;11.50;99.90;;;;;;5034635;28;20041;-63
2024/01/29 10:50:07;;;;;;;14.57;9.23;;;11.50;99.90;;;;;;5034828;28;20133;-64
2024/01/29 10:52:34;;;;;;;19.05;9.50;;;11.50;99.90;;;;;;5034881;28;20041;-66
2024/01/29 10:55:02;;;;;;;15.55;9.75;;;11.50;99.90;;;;;;5033968;28;20056;-64
2024/01/29 10:57:29;;;;;;;14.88;10.40;;;11.60;99.90;;;;;;5034660;28;20132;-64
2024/01/29 10:59:56;;;;;;;19.27;10.50;;;11.60;99.90;;;;;;5034440;28;20037;-66
2024/01/29 11:02:22;;;;;;;14.93;9.60;;;11.60;99.90;;;;;;5033984;28;20041;-64
2024/01/29 11:04:50;;;;;;;15.55;10.48;;;11.60;99.90;;;;;;5034180;28;20041;-64
2024/01/29 11:07:17;;;;;;;16.42;11.07;;;11.70;99.90;;;;;;5033565;28;20511;-65
2024/01/29 11:09:44;;;;;;;17.67;10.98;;;11.70;99.90;;;;;;5033877;28;20137;-65
2024/01/29 11:12:11;;;;;;;13.85;10.20;;;11.70;99.90;;;;;;5033650;28;20092;-65
2024/01/29 11:14:38;;;;;;;13.00;10.25;;;11.60;99.90;;;;;;5030545;28;20461;-65
2024/01/29 11:17:05;;;;;;;18.42;9.32;;;11.60;99.90;;;;;;5030655;28;20037;-63
2024/01/29 11:19:34;;;;;;;16.35;9.23;;;11.60;99.90;;;;;;5023116;28;20069;-64
2024/01/29 11:22:01;;;;;;;13.80;8.30;;;11.60;99.90;;;;;;5030763;28;20037;-64
2024/01/29 11:24:28;;;;;;;13.25;8.20;;;11.60;99.90;;;;;;5033566;28;20133;-64
2024/01/29 11:26:55;;;;;;;14.25;8.63;;;11.60;99.90;;;;;;5033561;28;20147;-65
2024/01/29 11:29:22;;;;;;;15.35;7.57;;;11.60;99.90;;;;;;5033629;28;20099;-65
2024/01/29 11:31:51;;;;;;;12.18;6.80;;;11.70;99.90;;;;;;5032856;28;20103;-64
2024/01/29 11:34:18;;;;;;;14.20;7.30;;;11.70;99.90;;;;;;5033741;28;20136;-65
2024/01/29 11:36:45;;;;;;;16.90;8.00;;;11.60;99.90;;;;;;5033974;28;20041;-64
2024/01/29 11:39:17;;;;;;;16.88;8.48;;;11.60;99.90;;;;;;5032635;28;20056;-63
2024/01/29 11:41:44;;;;;;;13.18;9.02;;;11.70;99.90;;;;;;5033793;28;20052;-63
2024/01/29 11:44:11;;;;;;;13.45;8.38;;;11.70;99.90;;;;;;5033349;28;20115;-64
2024/01/29 11:46:37;;;;;;;13.75;7.65;;;11.80;99.90;;;;;;5033045;28;20125;-63
2024/01/29 11:49:04;;;;;;;14.48;7.63;;;11.80;99.90;;;;;;5034047;28;20483;-64
2024/01/29 11:51:31;;;;;;;16.85;8.77;;;11.90;99.90;;;;;;5033856;28;20455;-64
2024/01/29 11:53:59;;;;;;;11.98;7.00;;;11.90;99.90;;;;;;5033414;28;20049;-62
2024/01/29 11:56:26;;;;;;;11.68;7.10;;;11.90;99.90;;;;;;5032636;28;20045;-62
2024/01/29 11:58:53;;;;;;;13.60;7.78;;;12.00;99.90;;;;;;5032441;28;20052;-63
2024/01/29 12:01:20;;;;;;;12.45;6.97;;;12.00;99.90;;;;;;5033733;28;20124;-62
2024/01/29 12:03:50;;;;;;;11.13;6.50;;;12.10;99.90;;;;;;5033255;28;20084;-63
2024/01/29 12:06:17;;;;;;;11.85;7.25;;;12.10;99.90;;;;;;5033282;28;20049;-63
2024/01/29 12:08:44;;;;;;;13.05;7.40;;;12.00;99.90;;;;;;5033564;28;20045;-63
2024/01/29 12:11:13;;;;;;;9.88;7.13;;;11.90;99.90;;;;;;5032649;28;20522;-63
2024/01/29 12:13:40;;;;;;;12.55;7.38;;;11.90;99.90;;;;;;5032479;28;20053;-63
2024/01/29 12:16:07;;;;;;;13.38;7.20;;;11.90;99.90;;;;;;5033518;28;20041;-63
2024/01/29 12:18:35;;;;;;;15.52;7.68;;;11.90;99.90;;;;;;5032773;28;20041;-62
2024/01/29 12:21:02;;;;;;;13.73;8.30;;;11.90;99.90;;;;;;5034298;28;20041;-63
2024/01/29 12:23:29;;;;;;;11.93;7.45;;;11.90;99.90;;;;;;5036596;28;20038;-62
2024/01/29 12:25:56;;;;;;;13.05;7.95;;;11.80;99.90;;;;;;5037490;28;20072;-63
2024/01/29 12:28:25;;;;;;;12.05;8.13;;;11.80;99.90;;;;;;5036694;28;20045;-62
2024/01/29 12:30:57;;;;;;;10.07;7.55;;;11.70;99.90;;;;;;5037347;28;20041;-62